Time;durP1;ratioP1;P1;durP2;ratioP2;P2;SDS_P1;SDS_P2;PMS_P1;PMS_P2;Temp;Humidity;BMP_temperature;BMP_pressure;BME280_temperature;BME280_humidity;BME280_pressure;Samples;Min_cycle;Max_cycle;Signal;HPM_P1;HPM_P2
2024/03/21 00:01:39;;;;;;;27.65;16.95;;;12.00;99.90;;;;;;5044012;28;20270;-70
2024/03/21 00:04:05;;;;;;;25.27;15.95;;;12.00;99.90;;;;;;5043130;28;20195;-71
2024/03/21 00:06:30;;;;;;;23.80;15.07;;;12.00;99.90;;;;;;5043801;28;20183;-69
2024/03/21 00:08:56;;;;;;;27.02;15.40;;;12.00;99.90;;;;;;5043835;28;20206;-70
2024/03/21 00:11:22;;;;;;;22.25;14.73;;;11.90;99.90;;;;;;5043042;28;20310;-71
2024/03/21 00:13:47;;;;;;;23.52;16.00;;;11.90;99.90;;;;;;5043726;28;20227;-69
2024/03/21 00:16:13;;;;;;;22.55;15.32;;;11.90;99.90;;;;;;5043464;28;20203;-68
2024/03/21 00:18:39;;;;;;;21.63;15.48;;;11.90;99.90;;;;;;5042076;28;20187;-70
2024/03/21 00:21:05;;;;;;;22.88;15.52;;;11.90;99.90;;;;;;5043594;28;20199;-69
2024/03/21 00:23:31;;;;;;;26.60;17.05;;;11.90;99.90;;;;;;5043300;28;20188;-70
2024/03/21 00:26:00;;;;;;;24.52;16.20;;;11.90;99.90;;;;;;5042117;28;20192;-70
2024/03/21 00:28:27;;;;;;;21.67;14.45;;;11.90;99.90;;;;;;5042489;28;20215;-71
2024/03/21 00:30:56;;;;;;;21.73;14.32;;;11.90;99.90;;;;;;5043722;28;20199;-71
2024/03/21 00:33:25;;;;;;;23.13;15.38;;;11.90;99.90;;;;;;5043438;28;20666;-70
2024/03/21 00:35:51;;;;;;;23.42;15.63;;;11.90;99.90;;;;;;5041603;28;20217;-69
2024/03/21 00:38:17;;;;;;;25.15;15.13;;;11.90;99.90;;;;;;5043548;28;20222;-70
2024/03/21 00:40:43;;;;;;;22.42;14.32;;;11.90;99.90;;;;;;5043302;28;20748;-68
2024/03/21 00:43:09;;;;;;;19.75;13.00;;;11.80;99.90;;;;;;5043165;28;20190;-68
2024/03/21 00:45:35;;;;;;;22.25;13.80;;;11.90;99.90;;;;;;5043421;28;20207;-69
2024/03/21 00:48:02;;;;;;;20.60;14.02;;;11.90;99.90;;;;;;5041883;28;20227;-71
2024/03/21 00:50:31;;;;;;;21.67;14.10;;;11.80;99.90;;;;;;5042791;28;20210;-69
2024/03/21 00:52:57;;;;;;;21.50;14.32;;;11.80;99.90;;;;;;5043055;28;20199;-70
2024/03/21 00:55:23;;;;;;;23.27;14.98;;;11.80;99.90;;;;;;5042933;28;20237;-69
2024/03/21 00:57:49;;;;;;;24.73;14.82;;;11.70;99.90;;;;;;5041741;28;20214;-70
2024/03/21 01:00:15;;;;;;;23.20;14.48;;;11.70;99.90;;;;;;5043128;28;20191;-70
2024/03/21 01:02:41;;;;;;;25.75;14.90;;;11.70;99.90;;;;;;5043059;28;20192;-68
2024/03/21 01:05:08;;;;;;;29.50;16.52;;;11.70;99.90;;;;;;5043049;28;20265;-67
2024/03/21 01:07:34;;;;;;;26.98;17.00;;;11.70;99.90;;;;;;5041132;28;20294;-68
2024/03/21 01:10:00;;;;;;;25.95;15.95;;;11.70;99.90;;;;;;5042892;28;20187;-67
2024/03/21 01:12:27;;;;;;;25.98;17.13;;;11.70;99.90;;;;;;5042361;28;20187;-67
2024/03/21 01:14:52;;;;;;;31.88;18.17;;;11.70;99.90;;;;;;5042826;28;20557;-69
2024/03/21 01:17:18;;;;;;;31.10;18.10;;;11.70;99.90;;;;;;5042310;28;20215;-68
2024/03/21 01:19:44;;;;;;;28.45;17.75;;;11.70;99.90;;;;;;5042693;28;20194;-70
2024/03/21 01:22:10;;;;;;;32.22;18.65;;;11.70;99.90;;;;;;5042021;28;20194;-69
2024/03/21 01:24:37;;;;;;;30.92;18.90;;;11.70;99.90;;;;;;5042814;28;20241;-69
2024/03/21 01:27:03;;;;;;;31.17;19.90;;;11.60;99.90;;;;;;5041228;28;20218;-69
2024/03/21 01:29:29;;;;;;;33.25;20.77;;;11.60;99.90;;;;;;5042297;28;20191;-70
2024/03/21 01:31:55;;;;;;;35.75;21.60;;;11.70;99.90;;;;;;5042809;28;21200;-70
2024/03/21 01:34:20;;;;;;;34.47;21.08;;;11.60;99.90;;;;;;5042577;28;20253;-71
2024/03/21 01:36:47;;;;;;;37.17;21.60;;;11.60;99.90;;;;;;5041669;28;21099;-68
2024/03/21 01:39:15;;;;;;;33.45;20.92;;;11.60;99.90;;;;;;5042215;28;20223;-69
2024/03/21 01:41:41;;;;;;;35.45;21.40;;;11.60;99.90;;;;;;5042096;28;20236;-70
2024/03/21 01:44:17;;;;;;;34.63;20.25;;;11.50;99.90;;;;;;5042287;28;20646;-69
2024/03/21 01:46:43;;;;;;;34.92;20.85;;;11.50;99.90;;;;;;5041942;28;20210;-70
2024/03/21 01:49:10;;;;;;;35.97;21.10;;;11.40;99.90;;;;;;5041506;28;20274;-69
2024/03/21 01:51:37;;;;;;;36.45;20.85;;;11.40;99.90;;;;;;5042355;28;20214;-70
2024/03/21 01:54:05;;;;;;;31.45;19.83;;;11.40;99.90;;;;;;5041592;28;20901;-70
2024/03/21 01:56:31;;;;;;;33.53;20.02;;;11.30;99.90;;;;;;5041335;28;21363;-70
2024/03/21 01:58:57;;;;;;;32.17;19.52;;;11.30;99.90;;;;;;5041449;28;20187;-69
2024/03/21 02:01:28;;;;;;;27.40;16.88;;;11.30;99.90;;;;;;5042150;28;20198;-67
2024/03/21 02:03:56;;;;;;;30.92;17.92;;;11.30;99.90;;;;;;5041413;28;20237;-68
2024/03/21 02:06:23;;;;;;;24.70;14.60;;;11.30;99.90;;;;;;5041704;28;20659;-67
2024/03/21 02:08:51;;;;;;;24.38;14.02;;;11.30;99.90;;;;;;5041850;28;20278;-69
2024/03/21 02:11:17;;;;;;;22.42;13.70;;;11.20;99.90;;;;;;5040132;28;20557;-68
2024/03/21 02:13:43;;;;;;;20.80;13.35;;;11.10;99.90;;;;;;5041119;28;20326;-70
2024/03/21 02:16:09;;;;;;;19.85;13.10;;;11.10;99.90;;;;;;5041797;28;20571;-68
2024/03/21 02:18:35;;;;;;;20.17;12.35;;;11.00;99.90;;;;;;5041148;28;20188;-67
2024/03/21 02:21:04;;;;;;;17.38;12.30;;;10.90;99.90;;;;;;5041925;28;20191;-69
2024/03/21 02:23:30;;;;;;;16.23;11.65;;;10.80;99.90;;;;;;5041330;28;20194;-69
2024/03/21 02:25:58;;;;;;;20.65;13.20;;;10.70;99.90;;;;;;5039913;28;20623;-68
2024/03/21 02:28:25;;;;;;;18.70;13.55;;;10.60;99.90;;;;;;5041372;28;20226;-69
2024/03/21 02:30:52;;;;;;;22.05;14.15;;;10.50;99.90;;;;;;5041718;28;20191;-66
2024/03/21 02:33:19;;;;;;;23.90;16.30;;;10.40;99.90;;;;;;5041541;28;20191;-69
2024/03/21 02:35:45;;;;;;;23.27;16.05;;;10.30;99.90;;;;;;5041263;28;20616;-67
2024/03/21 02:38:11;;;;;;;27.80;17.90;;;10.10;99.90;;;;;;5039897;28;20230;-68
2024/03/21 02:40:36;;;;;;;26.38;16.17;;;10.00;99.90;;;;;;5041139;28;20183;-71
2024/03/21 02:43:02;;;;;;;34.40;19.05;;;9.90;99.90;;;;;;5041094;28;20195;-69
2024/03/21 02:45:28;;;;;;;32.88;20.65;;;9.80;99.90;;;;;;5041322;28;20184;-69
2024/03/21 02:47:53;;;;;;;34.30;19.90;;;9.70;99.90;;;;;;5025858;28;20340;-68
2024/03/21 02:50:19;;;;;;;34.25;21.55;;;9.60;99.90;;;;;;5045335;28;20274;-70
2024/03/21 02:52:45;;;;;;;37.38;23.20;;;9.60;99.90;;;;;;5045288;28;20183;-69
2024/03/21 02:55:10;;;;;;;36.78;21.85;;;9.50;99.90;;;;;;5045538;28;20217;-70
2024/03/21 02:57:36;;;;;;;39.60;22.08;;;9.50;99.90;;;;;;5027314;28;20233;-69
2024/03/21 03:00:02;;;;;;;29.55;19.17;;;9.50;99.90;;;;;;5045081;28;20314;-69
2024/03/21 03:02:28;;;;;;;27.83;13.40;;;9.40;99.90;;;;;;5043327;28;20194;-70
2024/03/21 03:04:54;;;;;;;31.23;15.90;;;9.40;99.90;;;;;;5044768;28;20244;-69
2024/03/21 03:07:19;;;;;;;29.05;14.60;;;9.30;99.90;;;;;;5045056;28;20187;-69
2024/03/21 03:09:45;;;;;;;26.42;12.68;;;9.20;99.90;;;;;;5045444;28;20344;-69
2024/03/21 03:12:11;;;;;;;25.63;14.43;;;9.20;99.90;;;;;;5045142;28;20195;-68
2024/03/21 03:14:37;;;;;;;28.75;15.73;;;9.10;99.90;;;;;;5044740;28;20238;-69
2024/03/21 03:17:02;;;;;;;31.02;15.63;;;9.10;99.90;;;;;;5044987;28;20210;-68
2024/03/21 03:19:28;;;;;;;21.77;12.80;;;9.00;99.90;;;;;;5044658;28;20203;-67
2024/03/21 03:21:54;;;;;;;26.58;13.85;;;9.00;99.90;;;;;;5044722;28;20198;-69
2024/03/21 03:24:20;;;;;;;31.73;14.18;;;8.90;99.90;;;;;;5044507;28;20191;-69
2024/03/21 03:26:45;;;;;;;32.55;14.85;;;8.90;99.90;;;;;;5044666;28;20218;-69
2024/03/21 03:29:11;;;;;;;27.90;15.43;;;8.80;99.90;;;;;;5044839;28;20199;-68
2024/03/21 03:31:37;;;;;;;25.90;11.35;;;8.80;99.90;;;;;;5044509;28;20210;-70
2024/03/21 03:36:47;;;;;;;32.08;13.57;;;8.80;99.90;;;;;;5044075;28;20229;-68
2024/03/21 03:39:13;;;;;;;29.50;11.88;;;8.80;99.90;;;;;;5044534;28;21364;-69
2024/03/21 03:41:39;;;;;;;28.67;12.77;;;8.80;99.90;;;;;;5042988;28;20205;-68
2024/03/21 03:44:05;;;;;;;29.20;12.20;;;8.70;99.90;;;;;;5044443;28;20187;-70
2024/03/21 03:46:31;;;;;;;27.83;10.70;;;8.70;99.90;;;;;;5044127;28;20224;-69
2024/03/21 03:48:57;;;;;;;26.77;10.48;;;8.70;99.90;;;;;;5044248;28;20187;-69
2024/03/21 03:51:22;;;;;;;24.58;9.43;;;8.70;99.90;;;;;;5042780;28;20214;-70
2024/03/21 03:53:49;;;;;;;18.52;8.70;;;8.70;99.90;;;;;;5044027;28;20188;-68
2024/03/21 03:56:15;;;;;;;21.10;8.55;;;8.60;99.90;;;;;;5044396;28;20183;-70
2024/03/21 03:58:40;;;;;;;23.52;8.18;;;8.60;99.90;;;;;;5058194;28;20670;-70
2024/03/21 04:01:06;;;;;;;17.75;8.52;;;8.60;99.90;;;;;;5044438;28;20195;-69
2024/03/21 04:03:32;;;;;;;22.05;9.27;;;8.50;99.90;;;;;;5043892;28;20183;-69
2024/03/21 04:06:02;;;;;;;20.92;8.98;;;8.50;99.90;;;;;;5044061;28;20203;-69
2024/03/21 04:08:28;;;;;;;24.38;7.95;;;8.50;99.90;;;;;;5043645;28;20202;-70
2024/03/21 04:10:58;;;;;;;21.10;6.97;;;8.50;99.90;;;;;;5043718;28;20191;-69
2024/03/21 04:13:25;;;;;;;12.30;4.82;;;8.50;99.90;;;;;;5043950;28;20192;-70
2024/03/21 04:15:55;;;;;;;15.68;5.82;;;8.50;99.90;;;;;;5043004;28;20643;-69
2024/03/21 04:18:22;;;;;;;15.10;5.80;;;8.50;99.90;;;;;;5043375;28;20233;-69
2024/03/21 04:20:52;;;;;;;16.90;5.10;;;8.50;99.90;;;;;;5058218;28;20180;-68
2024/03/21 04:23:18;;;;;;;19.60;4.90;;;8.50;99.90;;;;;;5043582;28;20592;-69
2024/03/21 04:25:44;;;;;;;19.67;4.60;;;8.50;99.90;;;;;;5043269;28;20183;-69
2024/03/21 04:28:10;;;;;;;17.08;4.55;;;8.50;99.90;;;;;;5041989;28;20545;-70
2024/03/21 04:30:38;;;;;;;16.38;4.50;;;8.40;99.90;;;;;;5043657;28;20191;-69
2024/03/21 04:33:05;;;;;;;15.70;5.10;;;8.40;99.90;;;;;;5043387;28;20229;-69
2024/03/21 04:35:31;;;;;;;17.42;4.78;;;8.40;99.90;;;;;;5058495;28;20369;-68
2024/03/21 04:37:57;;;;;;;11.35;3.95;;;8.40;99.90;;;;;;5058392;28;20211;-68
2024/03/21 04:40:23;;;;;;;14.82;4.32;;;8.40;99.90;;;;;;5043424;28;20551;-69
2024/03/21 04:42:51;;;;;;;17.75;3.97;;;8.30;99.90;;;;;;5043320;28;20739;-69
2024/03/21 04:45:19;;;;;;;16.00;4.13;;;8.30;99.90;;;;;;5041379;28;20253;-70
2024/03/21 04:47:46;;;;;;;15.07;3.58;;;8.30;99.90;;;;;;5042808;28;20655;-69
2024/03/21 04:50:11;;;;;;;13.48;3.65;;;8.30;99.90;;;;;;5043267;28;20191;-68
2024/03/21 04:52:37;;;;;;;15.30;3.50;;;8.30;99.90;;;;;;5043299;28;20195;-67
2024/03/21 04:55:03;;;;;;;9.70;3.17;;;8.20;99.90;;;;;;5043074;28;20214;-69
2024/03/21 04:57:29;;;;;;;9.43;3.28;;;8.20;99.90;;;;;;5041415;28;20280;-68
2024/03/21 04:59:55;;;;;;;10.23;3.17;;;8.30;99.90;;;;;;5042930;28;20191;-71
2024/03/21 05:02:21;;;;;;;8.85;3.33;;;8.20;99.90;;;;;;5042957;28;20656;-69
2024/03/21 05:04:47;;;;;;;9.25;2.92;;;8.30;99.90;;;;;;5042952;28;20201;-68
2024/03/21 05:07:12;;;;;;;11.02;3.10;;;8.30;99.90;;;;;;5042164;28;20554;-69
2024/03/21 05:09:38;;;;;;;7.07;3.00;;;8.30;99.90;;;;;;5040627;28;20199;-69
2024/03/21 05:12:04;;;;;;;7.85;3.35;;;8.30;99.90;;;;;;5042991;28;20308;-68
2024/03/21 05:14:33;;;;;;;10.95;3.20;;;8.40;99.90;;;;;;5041785;28;20673;-69
2024/03/21 05:17:00;;;;;;;12.00;3.40;;;8.40;99.90;;;;;;5040999;28;20210;-70
2024/03/21 05:19:26;;;;;;;12.32;3.78;;;8.30;99.90;;;;;;5042320;28;20198;-69
2024/03/21 05:21:52;;;;;;;13.93;3.33;;;8.50;99.90;;;;;;5042773;28;20241;-68
2024/03/21 05:24:18;;;;;;;17.02;3.63;;;8.50;99.90;;;;;;5041481;28;20625;-70
2024/03/21 05:26:44;;;;;;;11.45;3.58;;;8.50;99.90;;;;;;5041675;28;20194;-71
2024/03/21 05:29:09;;;;;;;13.98;3.65;;;8.50;99.90;;;;;;5042480;28;20232;-68
2024/03/21 05:31:35;;;;;;;14.32;4.07;;;8.50;99.90;;;;;;5057790;28;20566;-69
2024/03/21 05:34:01;;;;;;;16.45;4.05;;;8.60;99.90;;;;;;5040741;28;20644;-69
2024/03/21 05:36:27;;;;;;;10.60;3.85;;;8.60;99.90;;;;;;5042094;28;20783;-69
2024/03/21 05:38:52;;;;;;;11.23;3.55;;;8.60;99.90;;;;;;5042454;28;20640;-70
2024/03/21 05:41:18;;;;;;;13.43;3.65;;;8.60;99.90;;;;;;5042265;28;20233;-69
2024/03/21 05:43:44;;;;;;;15.73;4.15;;;8.60;99.90;;;;;;5042435;28;21294;-66
2024/03/21 05:46:09;;;;;;;20.05;4.38;;;8.60;99.90;;;;;;5042218;28;20188;-69
2024/03/21 05:48:36;;;;;;;11.98;4.20;;;8.70;99.90;;;;;;5041731;28;20234;-69
2024/03/21 05:51:02;;;;;;;13.40;3.95;;;8.70;99.90;;;;;;5041394;28;20187;-70
2024/03/21 05:53:28;;;;;;;16.65;4.85;;;8.70;99.90;;;;;;5041684;28;20596;-69
2024/03/21 05:56:00;;;;;;;11.15;3.80;;;8.70;99.90;;;;;;5041664;28;20195;-69
2024/03/21 05:58:26;;;;;;;11.80;4.10;;;8.60;99.90;;;;;;5041534;28;20214;-69
2024/03/21 06:00:55;;;;;;;12.48;3.95;;;8.60;99.90;;;;;;5041799;28;20195;-68
2024/03/21 06:03:21;;;;;;;14.73;4.25;;;8.60;99.90;;;;;;5041652;28;20714;-68
2024/03/21 06:05:48;;;;;;;13.32;3.88;;;8.60;99.90;;;;;;5038970;28;20191;-68
2024/03/21 06:08:13;;;;;;;15.32;4.25;;;8.50;99.90;;;;;;5041285;28;20620;-67
2024/03/21 06:10:39;;;;;;;9.98;4.45;;;8.50;99.90;;;;;;5041086;28;20278;-67
2024/03/21 06:13:05;;;;;;;9.52;4.10;;;8.50;99.90;;;;;;5041740;28;20207;-68
2024/03/21 06:15:31;;;;;;;10.15;3.15;;;8.50;99.90;;;;;;5040007;28;20647;-69
2024/03/21 06:17:56;;;;;;;11.43;3.40;;;8.50;99.90;;;;;;5041162;28;20203;-69
2024/03/21 06:20:22;;;;;;;11.27;4.00;;;8.50;99.90;;;;;;5041258;28;20570;-69
2024/03/21 06:22:49;;;;;;;12.95;3.80;;;8.40;99.90;;;;;;5041686;28;20207;-68
2024/03/21 06:25:16;;;;;;;16.83;4.15;;;8.40;99.90;;;;;;5041280;28;20523;-69
2024/03/21 06:27:42;;;;;;;18.70;4.10;;;8.40;99.90;;;;;;5056145;28;20195;-68
2024/03/21 06:30:08;;;;;;;14.20;4.40;;;8.40;99.90;;;;;;5040967;28;20246;-69
2024/03/21 06:32:34;;;;;;;14.50;4.28;;;8.40;99.90;;;;;;5039261;28;20635;-68
2024/03/21 06:35:00;;;;;;;16.00;4.43;;;8.50;99.90;;;;;;5041231;28;20230;-70
2024/03/21 06:37:25;;;;;;;13.23;3.80;;;8.50;99.90;;;;;;5041222;28;20214;-70
2024/03/21 06:39:51;;;;;;;12.88;3.95;;;8.50;99.90;;;;;;5039634;28;20191;-69
2024/03/21 06:42:17;;;;;;;17.08;4.95;;;8.50;99.90;;;;;;5039709;28;20203;-71
2024/03/21 06:44:43;;;;;;;16.85;4.15;;;8.50;99.90;;;;;;5040790;28;20241;-67
2024/03/21 06:47:08;;;;;;;13.52;4.18;;;8.50;99.90;;;;;;5040405;28;20195;-68
2024/03/21 06:49:34;;;;;;;16.67;4.10;;;8.50;99.90;;;;;;5041164;28;20245;-70
2024/03/21 06:51:59;;;;;;;16.35;3.75;;;8.60;99.90;;;;;;5041053;28;20191;-70
2024/03/21 06:54:25;;;;;;;14.48;4.25;;;8.60;99.90;;;;;;5040174;28;20583;-72
2024/03/21 06:56:51;;;;;;;12.52;3.90;;;8.60;99.90;;;;;;5039871;28;20290;-70
2024/03/21 06:59:16;;;;;;;7.78;3.22;;;8.60;99.90;;;;;;5040958;28;20183;-71
2024/03/21 07:01:43;;;;;;;13.73;3.15;;;8.70;99.90;;;;;;5055981;28;20215;-69
2024/03/21 07:04:08;;;;;;;12.40;3.38;;;8.70;99.90;;;;;;5039170;28;20253;-68
2024/03/21 07:06:34;;;;;;;17.83;3.78;;;8.70;99.90;;;;;;5039155;28;20199;-69
2024/03/21 07:09:00;;;;;;;15.38;3.17;;;8.70;99.90;;;;;;5040756;28;20172;-74
2024/03/21 07:11:26;;;;;;;17.45;3.35;;;8.70;99.90;;;;;;5040623;28;20655;-71
2024/03/21 07:13:53;;;;;;;9.30;2.45;;;8.70;99.90;;;;;;5040774;28;20227;-67
2024/03/21 07:16:19;;;;;;;10.40;2.80;;;8.70;99.90;;;;;;5040813;28;20198;-69
2024/03/21 07:18:44;;;;;;;15.82;2.95;;;8.80;99.90;;;;;;5039018;28;20207;-69
2024/03/21 07:21:10;;;;;;;11.32;2.58;;;8.80;99.90;;;;;;5040989;28;20260;-71
2024/03/21 07:23:36;;;;;;;13.85;2.90;;;8.80;99.90;;;;;;5040817;28;20191;-73
2024/03/21 07:26:02;;;;;;;11.52;2.83;;;8.80;99.90;;;;;;5023128;28;20199;-76
2024/03/21 07:28:28;;;;;;;15.07;2.90;;;8.80;99.90;;;;;;5039645;28;20209;-74
2024/03/21 07:30:55;;;;;;;10.57;3.00;;;8.90;99.90;;;;;;5040900;28;20211;-73
2024/03/21 07:33:21;;;;;;;12.23;3.22;;;8.90;99.90;;;;;;5041766;28;20202;-70
2024/03/21 07:35:54;;;;;;;11.98;3.15;;;9.00;99.90;;;;;;5044315;28;20179;-73
2024/03/21 07:38:20;;;;;;;16.60;3.40;;;9.00;99.90;;;;;;5044009;28;20242;-70
2024/03/21 07:40:56;;;;;;;13.40;3.78;;;9.00;99.90;;;;;;5044188;28;20209;-70
2024/03/21 07:43:22;;;;;;;14.90;3.38;;;9.10;99.90;;;;;;5042950;28;20564;-68
2024/03/21 07:45:48;;;;;;;10.75;2.80;;;9.10;99.90;;;;;;5043948;28;20195;-67
2024/03/21 07:48:14;;;;;;;15.40;3.03;;;9.20;99.90;;;;;;5044227;28;20188;-71
2024/03/21 07:50:39;;;;;;;11.77;2.95;;;9.20;99.90;;;;;;5043749;28;20301;-71
2024/03/21 07:53:05;;;;;;;12.30;2.80;;;9.10;99.90;;;;;;5043307;28;20325;-75
2024/03/21 07:55:32;;;;;;;10.63;2.83;;;9.10;99.90;;;;;;5043632;28;20657;-75
2024/03/21 07:57:58;;;;;;;8.90;2.63;;;9.10;99.90;;;;;;5042692;28;20321;-69
2024/03/21 08:00:24;;;;;;;15.57;3.08;;;9.10;99.90;;;;;;5042959;28;20271;-70
2024/03/21 08:02:52;;;;;;;13.05;3.35;;;9.20;99.90;;;;;;5043794;28;20795;-69
2024/03/21 08:05:18;;;;;;;13.27;3.70;;;9.20;99.90;;;;;;5040852;28;20187;-70
2024/03/21 08:07:44;;;;;;;10.95;3.00;;;9.30;99.90;;;;;;5044083;28;20198;-68
2024/03/21 08:10:09;;;;;;;13.32;3.08;;;9.30;99.90;;;;;;5044072;28;20214;-70
2024/03/21 08:12:35;;;;;;;12.15;3.35;;;9.40;99.90;;;;;;5043741;28;20244;-71
2024/03/21 08:15:01;;;;;;;17.30;3.40;;;9.50;99.90;;;;;;5043731;28;20239;-69
2024/03/21 08:17:26;;;;;;;12.85;3.20;;;9.50;99.90;;;;;;5043746;28;20694;-70
2024/03/21 08:19:54;;;;;;;10.90;3.05;;;9.50;99.90;;;;;;5043691;28;20191;-69
2024/03/21 08:22:20;;;;;;;12.35;3.00;;;9.60;99.90;;;;;;5043270;28;20679;-69
2024/03/21 08:24:46;;;;;;;15.32;3.47;;;9.60;99.90;;;;;;5043592;28;20206;-70
2024/03/21 08:27:12;;;;;;;13.82;3.13;;;9.60;99.90;;;;;;5041540;28;20199;-71
2024/03/21 08:29:37;;;;;;;16.45;3.00;;;9.60;99.90;;;;;;5043087;28;20200;-71
2024/03/21 08:32:11;;;;;;;9.02;2.83;;;9.70;99.90;;;;;;5041775;28;20195;-72
2024/03/21 08:34:37;;;;;;;9.45;2.70;;;9.70;99.90;;;;;;5041601;28;20240;-71
2024/03/21 08:37:03;;;;;;;11.52;2.85;;;9.70;99.90;;;;;;5042944;28;20612;-70
2024/03/21 08:39:29;;;;;;;8.95;2.80;;;9.80;99.90;;;;;;5039558;28;20652;-67
2024/03/21 08:41:54;;;;;;;10.52;2.97;;;9.80;99.90;;;;;;5025397;28;20301;-70
2024/03/21 08:44:20;;;;;;;14.18;3.08;;;9.90;99.90;;;;;;5040413;28;20187;-69
2024/03/21 08:46:46;;;;;;;11.63;3.22;;;9.90;99.90;;;;;;5042903;28;20191;-69
2024/03/21 08:49:13;;;;;;;15.73;3.40;;;9.90;99.90;;;;;;5042407;28;20332;-68
2024/03/21 08:51:39;;;;;;;14.38;3.80;;;10.00;99.90;;;;;;5042648;28;20199;-68
2024/03/21 08:54:06;;;;;;;10.90;3.60;;;10.00;99.90;;;;;;5043461;28;20191;-68
2024/03/21 08:56:34;;;;;;;16.73;4.03;;;10.00;99.90;;;;;;5042496;28;20336;-70
2024/03/21 08:59:00;;;;;;;13.10;3.35;;;10.00;99.90;;;;;;5042985;28;20192;-68
2024/03/21 09:01:25;;;;;;;13.43;3.17;;;10.00;99.90;;;;;;5042856;28;20198;-69
2024/03/21 09:03:51;;;;;;;13.38;3.38;;;9.90;99.90;;;;;;5043050;28;20230;-69
2024/03/21 09:06:18;;;;;;;15.48;3.53;;;9.90;99.90;;;;;;5041436;28;20558;-70
2024/03/21 09:08:44;;;;;;;13.73;3.22;;;10.00;99.90;;;;;;5041291;28;20199;-71
2024/03/21 09:11:10;;;;;;;8.02;3.42;;;9.90;99.90;;;;;;5042924;28;21181;-68
2024/03/21 09:13:36;;;;;;;8.05;2.95;;;9.90;99.90;;;;;;5042270;28;20222;-68
2024/03/21 09:16:02;;;;;;;13.10;3.20;;;9.90;99.90;;;;;;5042503;28;20191;-68
2024/03/21 09:18:27;;;;;;;11.18;3.15;;;9.90;99.90;;;;;;5041029;28;20255;-71
2024/03/21 09:20:55;;;;;;;11.43;3.05;;;10.00;99.90;;;;;;5041064;28;20510;-68
2024/03/21 09:23:23;;;;;;;11.65;3.65;;;10.00;99.90;;;;;;5042051;28;20202;-69
2024/03/21 09:25:49;;;;;;;12.45;3.47;;;10.10;99.90;;;;;;5041974;28;20179;-68
2024/03/21 09:28:15;;;;;;;8.15;3.08;;;10.20;99.90;;;;;;5041704;28;20274;-67
2024/03/21 09:30:45;;;;;;;11.48;3.15;;;10.20;99.90;;;;;;5041725;28;20191;-69
2024/03/21 09:33:11;;;;;;;16.15;3.63;;;10.30;99.90;;;;;;5040700;28;20549;-69
2024/03/21 09:35:37;;;;;;;17.23;3.40;;;10.30;99.90;;;;;;5041970;28;20199;-70
2024/03/21 09:38:03;;;;;;;10.60;3.85;;;10.30;99.90;;;;;;5056990;28;20221;-69
2024/03/21 09:40:29;;;;;;;12.75;4.05;;;10.40;99.90;;;;;;5042007;28;20190;-70
2024/03/21 09:42:56;;;;;;;14.00;3.60;;;10.30;99.90;;;;;;5041838;28;20187;-69
2024/03/21 09:45:24;;;;;;;8.18;3.22;;;10.30;99.90;;;;;;5042147;28;20199;-71
2024/03/21 09:47:51;;;;;;;11.55;3.45;;;10.40;99.90;;;;;;5025535;28;20191;-67
2024/03/21 09:50:18;;;;;;;17.02;4.10;;;10.40;99.90;;;;;;5041998;28;20203;-70
2024/03/21 09:52:44;;;;;;;16.88;3.90;;;10.50;99.90;;;;;;5040321;28;20206;-71
2024/03/21 09:55:15;;;;;;;10.27;4.13;;;10.50;99.90;;;;;;5040389;28;20194;-70
2024/03/21 09:57:41;;;;;;;9.50;3.50;;;10.50;99.90;;;;;;5041107;28;20685;-68
2024/03/21 10:00:14;;;;;;;14.48;3.55;;;10.50;99.90;;;;;;5042027;28;20198;-67
2024/03/21 10:02:41;;;;;;;11.38;3.78;;;10.60;99.90;;;;;;5042048;28;20187;-68
2024/03/21 10:05:09;;;;;;;15.93;3.83;;;10.60;99.90;;;;;;5057063;28;20190;-69
2024/03/21 10:07:39;;;;;;;17.27;4.20;;;10.60;99.90;;;;;;5041973;28;20203;-71
2024/03/21 10:10:05;;;;;;;13.95;3.80;;;10.60;99.90;;;;;;5041260;28;20187;-71
2024/03/21 10:12:31;;;;;;;10.57;4.07;;;10.70;99.90;;;;;;5040827;28;20663;-70
2024/03/21 10:14:57;;;;;;;11.45;4.45;;;10.70;99.90;;;;;;5041788;28;20233;-69
2024/03/21 10:17:23;;;;;;;8.63;3.50;;;10.80;99.90;;;;;;5041619;28;20206;-71
2024/03/21 10:19:50;;;;;;;13.88;4.20;;;10.80;99.90;;;;;;5039796;28;20225;-70
2024/03/21 10:22:22;;;;;;;14.35;4.10;;;10.80;99.90;;;;;;5041054;28;20207;-68
2024/03/21 10:24:56;;;;;;;9.52;3.92;;;10.80;99.90;;;;;;5040777;28;20244;-72
2024/03/21 10:27:22;;;;;;;10.95;4.30;;;10.80;99.90;;;;;;5040187;28;20560;-69
2024/03/21 10:29:49;;;;;;;10.90;4.22;;;10.80;99.90;;;;;;5041209;28;20206;-71
2024/03/21 10:32:22;;;;;;;18.35;4.43;;;10.80;99.90;;;;;;5041668;28;20278;-69
2024/03/21 10:34:52;;;;;;;14.15;4.35;;;10.80;99.90;;;;;;5056371;28;20187;-70
2024/03/21 10:37:24;;;;;;;11.65;4.30;;;10.80;99.90;;;;;;5040198;28;20218;-68
2024/03/21 10:39:52;;;;;;;14.85;4.60;;;10.80;99.90;;;;;;5041041;28;20191;-71
2024/03/21 10:42:29;;;;;;;12.35;4.20;;;10.80;99.90;;;;;;5040889;28;20469;-68
2024/03/21 10:44:57;;;;;;;12.98;4.10;;;10.70;99.90;;;;;;5040724;28;20183;-69
2024/03/21 10:47:23;;;;;;;15.80;4.35;;;10.80;99.90;;;;;;5041212;28;20210;-69
2024/03/21 10:49:50;;;;;;;10.73;4.10;;;10.80;99.90;;;;;;5035484;28;20557;-71
2024/03/21 10:52:16;;;;;;;13.25;4.10;;;10.80;99.90;;;;;;5041191;28;20210;-71
2024/03/21 10:54:42;;;;;;;11.65;4.00;;;10.80;99.90;;;;;;5056768;28;20226;-69
2024/03/21 10:57:19;;;;;;;10.75;3.90;;;10.70;99.90;;;;;;5040454;28;20290;-68
2024/03/21 11:00:05;;;;;;;15.70;4.20;;;10.70;99.90;;;;;;5040921;28;20179;-69
2024/03/21 11:02:31;;;;;;;14.02;4.50;;;10.70;99.90;;;;;;5041326;28;20288;-71
2024/03/21 11:05:12;;;;;;;11.80;4.45;;;10.70;99.90;;;;;;5041033;28;20213;-69
2024/03/21 11:07:39;;;;;;;15.13;5.20;;;10.70;99.90;;;;;;5042630;28;20206;-69
2024/03/21 11:10:07;;;;;;;12.35;5.05;;;10.70;99.90;;;;;;5044795;28;20294;-68
2024/03/21 11:12:36;;;;;;;12.85;5.30;;;10.70;99.90;;;;;;5045028;28;20187;-72
2024/03/21 11:15:03;;;;;;;9.70;4.15;;;10.70;99.90;;;;;;5043099;28;20281;-70
2024/03/21 11:17:28;;;;;;;11.73;4.28;;;10.70;99.90;;;;;;5044067;28;21132;-71
2024/03/21 11:19:55;;;;;;;13.63;4.18;;;10.70;99.90;;;;;;5044698;28;20183;-70
2024/03/21 11:22:23;;;;;;;10.23;4.40;;;10.70;99.90;;;;;;5044353;28;20195;-70
2024/03/21 11:24:49;;;;;;;13.48;4.05;;;10.70;99.90;;;;;;5042961;28;20728;-69
2024/03/21 11:27:18;;;;;;;11.23;3.70;;;10.70;99.90;;;;;;5044129;28;21018;-69
2024/03/21 11:29:45;;;;;;;10.90;4.00;;;10.80;99.90;;;;;;5044445;28;20191;-71
2024/03/21 11:32:12;;;;;;;11.23;4.05;;;10.80;99.90;;;;;;5044417;28;20206;-69
2024/03/21 11:34:39;;;;;;;13.27;4.43;;;10.80;99.90;;;;;;5042858;28;20207;-70
2024/03/21 11:37:11;;;;;;;10.20;4.30;;;10.80;99.90;;;;;;5044473;28;20297;-70
2024/03/21 11:39:39;;;;;;;15.52;4.47;;;10.80;99.90;;;;;;5044370;28;20620;-68
2024/03/21 11:42:15;;;;;;;12.35;4.40;;;10.80;99.90;;;;;;5044158;28;20310;-71
2024/03/21 11:44:42;;;;;;;12.68;4.78;;;10.80;99.90;;;;;;5044404;28;20186;-67
2024/03/21 11:47:13;;;;;;;13.38;4.97;;;10.80;99.90;;;;;;5042000;28;20203;-71
2024/03/21 11:49:39;;;;;;;14.55;4.72;;;10.80;99.90;;;;;;5043962;28;20258;-70
2024/03/21 11:52:09;;;;;;;8.00;4.57;;;10.80;99.90;;;;;;5043708;28;20219;-69
2024/03/21 11:54:35;;;;;;;11.00;4.35;;;10.80;99.90;;;;;;5044423;28;20949;-73
2024/03/21 11:57:01;;;;;;;8.32;3.58;;;10.90;99.90;;;;;;5043823;28;20214;-69
2024/03/21 11:59:30;;;;;;;9.43;3.85;;;10.80;99.90;;;;;;5042467;28;20203;-69
2024/03/21 12:01:59;;;;;;;11.73;3.83;;;10.80;99.90;;;;;;5043964;28;20258;-73
2024/03/21 12:04:27;;;;;;;10.65;4.03;;;10.80;99.90;;;;;;5044256;28;21004;-68
2024/03/21 12:06:53;;;;;;;9.32;3.92;;;10.80;99.90;;;;;;5042036;28;20628;-71
2024/03/21 12:09:19;;;;;;;9.80;3.70;;;10.70;99.90;;;;;;5043750;28;20213;-69
2024/03/21 12:11:44;;;;;;;11.10;4.07;;;10.70;99.90;;;;;;5043533;28;20195;-70
2024/03/21 12:14:10;;;;;;;12.98;4.13;;;10.70;99.90;;;;;;5058904;28;20218;-71
2024/03/21 12:16:37;;;;;;;11.20;4.45;;;10.60;99.90;;;;;;5043165;28;20213;-70
2024/03/21 12:19:03;;;;;;;17.17;4.50;;;10.60;99.90;;;;;;5042032;28;20195;-70
2024/03/21 12:21:29;;;;;;;9.63;4.30;;;10.50;99.90;;;;;;5043348;28;20282;-70
2024/03/21 12:23:55;;;;;;;16.58;4.82;;;10.50;99.90;;;;;;5025183;28;20381;-68
2024/03/21 12:26:20;;;;;;;11.18;4.90;;;10.50;99.90;;;;;;5043546;28;20186;-71
2024/03/21 12:28:47;;;;;;;14.00;4.45;;;10.50;99.90;;;;;;5043486;28;20210;-67
2024/03/21 12:31:14;;;;;;;17.65;5.93;;;10.40;99.90;;;;;;5043926;28;20264;-70
2024/03/21 12:33:40;;;;;;;14.20;4.93;;;10.40;99.90;;;;;;5042411;28;20223;-69
2024/03/21 12:36:08;;;;;;;9.50;4.47;;;10.40;99.90;;;;;;5042922;28;20199;-68
2024/03/21 12:38:34;;;;;;;12.88;4.60;;;10.40;99.90;;;;;;5042846;28;20207;-71
2024/03/21 12:41:00;;;;;;;12.15;4.00;;;10.60;99.90;;;;;;5041962;28;20191;-67